Hovedside
METAR-TAF:

METAR-TAF

Lufthavner :

Mehamn lufthavn

Gamvik, Norge

breddegrad: 71-02N, lengdegrad: 027-50E, høyde over havet: 1 m

Gjeldene værobservasjon

Denne rapporten ble laget for 21 minutter siden, klokken 10:50 UTC
Vind 3 kt fra skiftende retning
Temperatur 12°C
Luftfuktighet 88%
Trykk 1001 hPa
Sikt 10 km eller mer
ingen skyer under 1500 m og ingen bygeskyer

METAR: ENMH 191050Z VRB03KT CAVOK 12/10 Q1001

Tid: 13:11 (11:11 UTC)

Varsel

Denne rapporten ble laget for 3 timer og 11 minutter siden, klokken 08:00 UTC
Varsel gyldig fra 19. klokken 09 UTC til 19. klokken 18 UTC
Vind 5 kt fra Nord
Sikt 10 km eller mer
Få skyer i en høyde av 4000 ft
Spredte skyer i en høyde av 7000 ft
lett regn
Blir
fra 19. klokken 09 UTC til 19. klokken 12 UTC
Vind 15 kt fra Øst-sørøst
Midlertidig
fra 19. klokken 15 UTC til 19. klokken 18 UTC
Brutte skyer i en høyde av 800 ft
regn,

TAF: ENMH 190800Z 1909/1918 36005KT 9999 -RA FEW040 SCT070 BECMG 1909/1912 11015KT TEMPO 1915/1918 RA BKN008

Værobservasjoner og værvarsel for over 4000 flyplasser (METAR- og TAF-rapporter).

Tilgjengelige stasjoner er representert av de røde og gule prikkene på kartet.

Hold musepekeren over prikken for å se navnet på stasjonen.

Klikk så for å se værobservasjoner og -varsler.

For å forandre kartet kan du klikke på den grønne knappen med svart kryss for å zoome inn, på den grønne knappen med strek for å zoome ut, eller på de grønne pilene for å se tilstøtende kart.


METAR-TAF: